createdAt,value
2022-08-05T00:00:50.311Z,20.2
2022-08-05T00:02:50.742Z,20
2022-08-05T00:04:42.388Z,20.2
2022-08-05T00:06:39.961Z,20.1
2022-08-05T00:08:37.544Z,20.1
2022-08-05T00:10:35.135Z,20.1
2022-08-05T00:14:38.252Z,20.2
2022-08-05T00:24:31.175Z,20.1
2022-08-05T00:30:28.998Z,20.3
2022-08-05T00:32:25.870Z,20.2
2022-08-05T00:34:53.755Z,20.2
2022-08-05T00:37:10.449Z,20.1
2022-08-05T00:38:17.327Z,20.1
2022-08-05T00:40:27.878Z,20
2022-08-05T00:42:32.072Z,20.1
2022-08-05T00:44:18.026Z,20
2022-08-05T00:45:27.982Z,20
2022-08-05T00:47:18.380Z,20
2022-08-05T00:49:15.995Z,19.9
2022-08-05T00:51:50.775Z,20
2022-08-05T00:54:01.161Z,19.9
2022-08-05T00:55:16.743Z,19.8
2022-08-05T01:03:07.572Z,19.8
2022-08-05T01:05:05.194Z,19.7
2022-08-05T01:07:13.555Z,19.7
2022-08-05T01:09:07.831Z,19.8
2022-08-05T01:11:05.424Z,19.8
2022-08-05T01:13:05.184Z,19.8
2022-08-05T01:15:04.071Z,19.7
2022-08-05T01:16:58.213Z,19.8
2022-08-05T01:18:56.156Z,19.8
2022-08-05T01:21:01.425Z,19.8
2022-08-05T01:22:58.955Z,19.9
2022-08-05T01:24:56.543Z,20
2022-08-05T01:28:51.722Z,19.9
2022-08-05T01:32:46.902Z,19.8
2022-08-05T01:38:48.538Z,19.9
2022-08-05T01:39:50.385Z,19.8
2022-08-05T01:41:47.967Z,19.9
2022-08-05T01:43:45.578Z,19.8
2022-08-05T01:45:43.380Z,19.9
2022-08-05T01:47:48.695Z,19.8
2022-08-05T01:50:01.405Z,19.7
2022-08-05T01:51:43.886Z,19.8
2022-08-05T01:53:57.433Z,19.7
2022-08-05T01:55:39.060Z,19.6
2022-08-05T01:58:10.467Z,19.5
2022-08-05T02:03:37.374Z,19.8
2022-08-05T02:07:32.561Z,19.9
2022-08-05T02:09:30.161Z,19.8
2022-08-05T02:11:33.194Z,20
2022-08-05T02:13:25.354Z,20
2022-08-05T02:15:33.432Z,20
2022-08-05T02:18:30.718Z,20
2022-08-05T02:19:27.621Z,19.8
2022-08-05T02:21:25.231Z,19.9
2022-08-05T02:25:20.380Z,19.7
2022-08-05T02:27:17.971Z,19.8
2022-08-05T02:29:26.117Z,19.7
2022-08-05T02:33:24.338Z,20
2022-08-05T02:34:21.501Z,20
2022-08-05T02:36:19.093Z,19.9
2022-08-05T02:38:19.355Z,19.8
2022-08-05T02:42:22.584Z,19.9
2022-08-05T02:44:17.404Z,19.8
2022-08-05T02:46:16.393Z,19.8
2022-08-05T02:48:12.949Z,19.8
2022-08-05T02:50:10.175Z,19.8
2022-08-05T02:52:08.011Z,19.7
2022-08-05T02:54:05.375Z,19.9
2022-08-05T02:56:10.927Z,19.7
2022-08-05T02:58:13.233Z,19.6
2022-08-05T03:00:06.113Z,19.5
2022-08-05T03:02:03.745Z,19.6
2022-08-05T03:04:04.337Z,19.6
2022-08-05T03:06:55.388Z,19.6
2022-08-05T03:08:06.749Z,19.6
2022-08-05T03:11:59.617Z,19.6
2022-08-05T03:14:04.085Z,19.5
2022-08-05T03:15:54.799Z,19.5
2022-08-05T03:17:54.205Z,19.5
2022-08-05T03:19:49.983Z,19.4
2022-08-05T03:21:49.446Z,19.5
2022-08-05T03:26:04.547Z,19.3
2022-08-05T03:28:00.141Z,19.3
2022-08-05T03:32:12.819Z,19.3
2022-08-05T03:34:10.400Z,19.4
2022-08-05T03:36:15.958Z,19.3
2022-08-05T03:42:08.718Z,19.5
2022-08-05T03:44:11.409Z,19.5
2022-08-05T03:48:01.536Z,19.5
2022-08-05T03:50:07.079Z,19.4
2022-08-05T03:52:48.603Z,19.4
2022-08-05T03:56:10.118Z,19.6
2022-08-05T03:57:57.444Z,19.6
2022-08-05T04:01:52.759Z,19.5
2022-08-05T04:04:08.832Z,19.4
2022-08-05T04:05:55.792Z,19.5
2022-08-05T04:07:58.261Z,19.4
2022-08-05T04:09:53.078Z,19.4
2022-08-05T04:11:52.359Z,19.3
2022-08-05T04:13:50.909Z,19.3
2022-08-05T04:19:46.885Z,19.4
2022-08-05T04:22:08.864Z,19.4
2022-08-05T04:22:47.267Z,19.5
2022-08-05T04:24:52.447Z,19.4
2022-08-05T04:30:45.632Z,19.3
2022-08-05T04:38:39.448Z,19.3
2022-08-05T04:40:33.579Z,19.3
2022-08-05T04:42:31.160Z,19.4
2022-08-05T04:44:36.725Z,19.2
2022-08-05T04:46:34.324Z,19.3
2022-08-05T04:48:31.951Z,19.3
2022-08-05T04:50:37.386Z,19.3
2022-08-05T04:52:27.500Z,19.2
2022-08-05T04:54:24.723Z,19.2
2022-08-05T04:58:27.869Z,19.1
2022-08-05T05:00:25.467Z,19.2
2022-08-05T05:02:37.084Z,19.1
2022-08-05T05:04:20.659Z,19.2
2022-08-05T05:06:38.811Z,19.3
2022-08-05T05:08:26.752Z,19.3
2022-08-05T05:12:19.001Z,19.3
2022-08-05T05:14:16.610Z,19.3
2022-08-05T05:16:14.218Z,19.2
2022-08-05T05:17:22.773Z,19.3
2022-08-05T05:19:19.281Z,19.4
2022-08-05T05:21:12.167Z,19.1
2022-08-05T05:23:19.513Z,19.1
2022-08-05T05:25:16.949Z,19.2
2022-08-05T05:27:12.901Z,19.3
2022-08-05T05:29:14.782Z,19.2
2022-08-05T05:31:08.929Z,19.2
2022-08-05T05:33:16.150Z,19.4
2022-08-05T05:35:03.336Z,19.3
2022-08-05T05:37:00.925Z,19.3
2022-08-05T05:39:09.400Z,19.3
2022-08-05T05:41:04.066Z,19.3
2022-08-05T05:43:02.143Z,19.3
2022-08-05T05:46:58.075Z,19.2
2022-08-05T05:48:54.475Z,19.2
2022-08-05T05:50:52.097Z,19.4
2022-08-05T05:54:55.240Z,19.4
2022-08-05T05:56:52.830Z,19.3
2022-08-05T05:58:50.420Z,19.3
2022-08-05T06:04:43.279Z,19.3
2022-08-05T06:08:49.196Z,19.1
2022-08-05T06:10:49.149Z,19
2022-08-05T06:12:01.732Z,19.1
2022-08-05T06:16:28.241Z,19.3
2022-08-05T06:17:53.061Z,19.3
2022-08-05T06:19:56.323Z,19.4
2022-08-05T06:21:49.429Z,19.5
2022-08-05T06:31:32.316Z,19.5
2022-08-05T06:34:05.979Z,19.5
2022-08-05T06:36:07.066Z,19.4
2022-08-05T06:37:55.548Z,19.6
2022-08-05T06:39:29.133Z,19.6
2022-08-05T06:41:26.643Z,19.6
2022-08-05T06:43:58.903Z,19.5
2022-08-05T06:48:11.684Z,19.6
2022-08-05T06:50:00.282Z,19.6
2022-08-05T06:51:29.537Z,19.7
2022-08-05T06:55:17.767Z,19.9
2022-08-05T06:57:57.676Z,19.9
2022-08-05T06:59:12.931Z,20
2022-08-05T07:03:16.682Z,20
2022-08-05T07:05:18.714Z,19.8
2022-08-05T07:07:43.804Z,20
2022-08-05T07:09:40.655Z,19.9
2022-08-05T07:11:36.989Z,20.1
2022-08-05T07:13:57.786Z,19.9
2022-08-05T07:16:01.707Z,20
2022-08-05T07:20:29.845Z,19.9
2022-08-05T07:22:00.394Z,20.1
2022-08-05T07:23:29.494Z,20.1
2022-08-05T07:25:56.114Z,20.2
2022-08-05T07:27:58.047Z,20.1
2022-08-05T07:30:27.529Z,20.2
2022-08-05T07:31:41.116Z,20.3
2022-08-05T07:33:37.019Z,20.3
2022-08-05T07:36:04.399Z,20.4
2022-08-05T07:42:09.594Z,20.6
2022-08-05T07:43:21.260Z,20.5
2022-08-05T07:45:18.328Z,20.6
2022-08-05T07:47:15.891Z,20.5
2022-08-05T07:49:13.442Z,20.5
2022-08-05T07:57:41.599Z,20.9
2022-08-05T07:59:10.762Z,20.8
2022-08-05T08:00:13.537Z,20.9
2022-08-05T08:02:16.920Z,20.9
2022-08-05T08:06:06.221Z,21.2
2022-08-05T08:10:09.218Z,21.5
2022-08-05T08:14:04.331Z,22.1
2022-08-05T08:16:35.878Z,21.9
2022-08-05T08:17:59.436Z,21.9
2022-08-05T08:20:10.450Z,21.9
2022-08-05T08:22:02.525Z,21.8
2022-08-05T08:24:04.666Z,21.8
2022-08-05T08:26:00.952Z,22
2022-08-05T08:27:55.136Z,22.1
2022-08-05T08:30:06.087Z,21.8
2022-08-05T08:31:50.238Z,21.8
2022-08-05T08:33:51.405Z,21.7
2022-08-05T08:36:07.818Z,21.3
2022-08-05T08:39:49.658Z,21.3
2022-08-05T08:41:50.885Z,21.4
2022-08-05T08:45:17.684Z,21.5
2022-08-05T08:45:40.996Z,21.3
2022-08-05T08:48:07.113Z,21.2
2022-08-05T08:50:12.925Z,21.2
2022-08-05T08:52:05.770Z,21.3
2022-08-05T09:00:34.518Z,21.9
2022-08-05T09:02:39.977Z,22.4
2022-08-05T09:04:37.534Z,22.4
2022-08-05T09:06:36.360Z,22.3
2022-08-05T09:08:32.606Z,22
2022-08-05T09:12:27.967Z,21.9
2022-08-05T09:14:56.769Z,22.3
2022-08-05T09:16:30.792Z,22.4
2022-08-05T09:18:28.302Z,22.6
2022-08-05T09:20:37.924Z,22.5
2022-08-05T09:22:30.935Z,22.7
2022-08-05T09:32:41.867Z,22.5
2022-08-05T09:36:16.604Z,22.9
2022-08-05T09:38:18.206Z,22.9
2022-08-05T09:40:09.322Z,22.7
2022-08-05T09:42:06.772Z,22.9
2022-08-05T09:44:12.261Z,23
2022-08-05T09:46:09.797Z,23.1
2022-08-05T09:48:07.326Z,23.2
2022-08-05T09:49:19.407Z,23.2
2022-08-05T09:51:15.245Z,23.2
2022-08-05T09:53:05.130Z,23.3
2022-08-05T09:55:55.158Z,23.3
2022-08-05T09:57:20.649Z,23
2022-08-05T09:59:05.658Z,23.2
2022-08-05T10:04:58.256Z,23.5
2022-08-05T10:06:59.014Z,23.6
2022-08-05T10:08:54.033Z,23.5
2022-08-05T10:10:58.738Z,23.5
2022-08-05T10:12:56.269Z,23.5
2022-08-05T10:14:54.417Z,23.7
2022-08-05T10:16:52.843Z,23.6
2022-08-05T10:18:48.772Z,23.5
2022-08-05T10:20:47.818Z,23.5
2022-08-05T10:22:50.839Z,23.6
2022-08-05T10:24:49.258Z,23.5
2022-08-05T10:26:48.956Z,23.4
2022-08-05T10:28:44.958Z,23.7
2022-08-05T10:32:50.555Z,23.9
2022-08-05T10:32:55.399Z,23.7
2022-08-05T10:34:36.746Z,23.4
2022-08-05T10:36:34.256Z,23.5
2022-08-05T10:38:39.720Z,23.7
2022-08-05T10:45:01.507Z,23.7
2022-08-05T10:56:54.452Z,24.4
2022-08-05T11:00:55.301Z,24.5
2022-08-05T11:02:46.934Z,24.4
2022-08-05T11:04:52.404Z,24.4
2022-08-05T11:06:49.848Z,24.8
2022-08-05T11:08:47.335Z,25.2
2022-08-05T11:10:50.363Z,25.1
2022-08-05T11:12:42.330Z,25.1
2022-08-05T11:22:37.620Z,24.1
2022-08-05T11:24:35.070Z,23.9
2022-08-05T11:26:33.297Z,24
2022-08-05T11:28:30.003Z,24.1
2022-08-05T11:30:27.448Z,24.1
2022-08-05T11:32:32.909Z,24.4
2022-08-05T11:34:30.410Z,24.8
2022-08-05T11:36:34.509Z,24.9
2022-08-05T11:38:28.730Z,25.1
2022-08-05T11:41:57.850Z,25
2022-08-05T11:43:58.492Z,24.8
2022-08-05T11:49:23.221Z,24.3
2022-08-05T11:51:44.014Z,24.2
2022-08-05T11:53:18.096Z,24.2
2022-08-05T11:55:15.596Z,24.2
2022-08-05T11:57:24.403Z,24
2022-08-05T11:59:21.165Z,23.8
2022-08-05T12:01:18.938Z,23.9
2022-08-05T12:03:13.414Z,23.9
2022-08-05T12:05:18.275Z,23.8
2022-08-05T12:07:09.213Z,23.8
2022-08-05T12:11:05.588Z,23.8
2022-08-05T12:15:06.069Z,23.5
2022-08-05T12:17:03.536Z,23.5
2022-08-05T12:19:00.993Z,23.6
2022-08-05T12:24:53.419Z,23.7
2022-08-05T12:28:56.344Z,23.5
2022-08-05T12:30:53.835Z,23.4
2022-08-05T12:31:56.614Z,23.4
2022-08-05T12:33:54.018Z,23.5
2022-08-05T12:37:48.976Z,23.2
2022-08-05T12:39:54.525Z,23.5
2022-08-05T12:41:57.950Z,23.7
2022-08-05T12:43:49.398Z,23.6
2022-08-05T12:45:49.832Z,23.7
2022-08-05T12:48:01.429Z,23.5
2022-08-05T12:50:02.945Z,23.3
2022-08-05T12:52:13.674Z,23.5
2022-08-05T12:53:44.778Z,23.6
2022-08-05T12:58:48.494Z,23.8
2022-08-05T13:00:08.299Z,23.9
2022-08-05T13:02:01.237Z,24.1
2022-08-05T13:03:32.885Z,24.4
2022-08-05T13:05:34.036Z,25
2022-08-05T13:07:59.435Z,25.2
2022-08-05T13:09:32.535Z,25.1
2022-08-05T13:12:01.416Z,25.5
2022-08-05T13:14:04.667Z,26.1
2022-08-05T13:15:42.117Z,27
2022-08-05T13:17:31.565Z,27.2
2022-08-05T13:19:19.571Z,27
2022-08-05T13:21:27.726Z,26.8
2022-08-05T13:23:23.126Z,27.3
2022-08-05T13:26:27.231Z,27.2
2022-08-05T13:30:35.606Z,26.5
2022-08-05T13:32:14.188Z,26.6
2022-08-05T13:34:24.034Z,27
2022-08-05T13:36:16.784Z,27.1
2022-08-05T13:38:28.635Z,27.3
2022-08-05T13:40:20.026Z,27.7
2022-08-05T13:42:14.511Z,27.4
2022-08-05T13:44:07.287Z,27
2022-08-05T13:46:04.491Z,26.3
2022-08-05T13:48:56.592Z,25.9
2022-08-05T13:50:11.353Z,25.9
2022-08-05T13:52:04.190Z,25.6
2022-08-05T13:54:01.487Z,25.3
2022-08-05T13:57:55.910Z,25.7
2022-08-05T13:59:57.288Z,25.8
2022-08-05T14:03:55.748Z,26.1
2022-08-05T14:06:04.812Z,26.6
2022-08-05T14:09:47.563Z,25.9
2022-08-05T14:12:00.661Z,25.6
2022-08-05T14:13:42.115Z,25
2022-08-05T14:16:08.863Z,25.3
2022-08-05T14:17:44.729Z,25.1
2022-08-05T14:19:54.089Z,25.5
2022-08-05T14:22:09.337Z,24.9
2022-08-05T14:23:56.445Z,24.8
2022-08-05T14:25:54.274Z,24.7
2022-08-05T14:27:59.074Z,24.3
2022-08-05T14:29:56.444Z,24.3
2022-08-05T14:32:03.085Z,24
2022-08-05T14:33:59.206Z,23.8
2022-08-05T14:37:48.970Z,24
2022-08-05T14:39:49.692Z,24.9
2022-08-05T14:42:08.621Z,24.9
2022-08-05T14:44:02.393Z,24.6
2022-08-05T14:48:03.237Z,26
2022-08-05T14:49:59.505Z,27
2022-08-05T14:51:35.525Z,26.6
2022-08-05T14:53:32.904Z,26
2022-08-05T14:55:39.220Z,25.2
2022-08-05T14:57:56.045Z,25.2
2022-08-05T14:59:35.435Z,24.9
2022-08-05T15:01:48.072Z,24.9
2022-08-05T15:03:27.673Z,24.6
2022-08-05T15:08:12.206Z,24.6
2022-08-05T15:09:51.411Z,24.4
2022-08-05T15:11:25.188Z,24.5
2022-08-05T15:13:23.560Z,24.2
2022-08-05T15:14:34.616Z,23.7
2022-08-05T15:16:22.641Z,23.7
2022-08-05T15:18:20.063Z,23.6
2022-08-05T15:20:18.734Z,23.7
2022-08-05T15:22:26.973Z,23.6
2022-08-05T15:24:20.309Z,23.6
2022-08-05T15:26:31.921Z,23.5
2022-08-05T15:28:15.744Z,23.5
2022-08-05T15:30:14.208Z,23.7
2022-08-05T15:32:10.009Z,23.6
2022-08-05T15:34:32.405Z,23.7
2022-08-05T15:36:17.829Z,23.5
2022-08-05T15:42:54.137Z,23.7
2022-08-05T15:44:02.920Z,23.7
2022-08-05T15:46:01.303Z,23.5
2022-08-05T15:50:03.144Z,23.2
2022-08-05T15:52:03.746Z,23
2022-08-05T15:53:58.085Z,22.9
2022-08-05T15:56:04.205Z,22.8
2022-08-05T15:57:53.039Z,22.7
2022-08-05T15:59:54.013Z,22.6
2022-08-05T16:01:52.776Z,22.7
2022-08-05T16:03:53.480Z,22.6
2022-08-05T16:05:52.723Z,22.6
2022-08-05T16:08:53.552Z,22.6
2022-08-05T16:10:48.739Z,22.7
2022-08-05T16:12:46.249Z,22.9
2022-08-05T16:14:43.746Z,22.9
2022-08-05T16:16:49.218Z,22.9
2022-08-05T16:18:52.479Z,22.9
2022-08-05T16:20:44.226Z,23
2022-08-05T16:22:41.787Z,22.9
2022-08-05T16:24:41.549Z,22.9
2022-08-05T16:26:36.778Z,22.8
2022-08-05T16:28:34.287Z,22.6
2022-08-05T16:30:39.819Z,22.6
2022-08-05T16:32:37.312Z,22.8
2022-08-05T16:34:34.820Z,22.7
2022-08-05T16:36:32.321Z,22.7
2022-08-05T16:38:29.826Z,22.5
2022-08-05T16:40:29.238Z,22.5
2022-08-05T16:50:22.914Z,22.3
2022-08-05T16:52:20.445Z,22.2
2022-08-05T16:54:24.845Z,22.1
2022-08-05T16:56:15.507Z,22.1
2022-08-05T16:58:21.019Z,22.1
2022-08-05T17:00:26.170Z,22.1
2022-08-05T17:02:16.254Z,22
2022-08-05T17:03:20.472Z,22.1
2022-08-05T17:05:16.387Z,22.1
2022-08-05T17:07:13.878Z,21.9
2022-08-05T17:09:11.429Z,21.9
2022-08-05T17:11:17.413Z,21.9
2022-08-05T17:13:16.878Z,21.8
2022-08-05T17:15:19.191Z,21.9
2022-08-05T17:19:09.580Z,21.6
2022-08-05T17:21:04.664Z,21.6
2022-08-05T17:23:02.177Z,21.5
2022-08-05T17:27:05.523Z,21.2
2022-08-05T17:29:07.293Z,21.1
2022-08-05T17:31:00.357Z,21.1
2022-08-05T17:32:57.906Z,21.1
2022-08-05T17:34:55.461Z,21.1
2022-08-05T17:36:53.039Z,21
2022-08-05T17:38:58.662Z,20.8
2022-08-05T17:40:56.124Z,20.8
2022-08-05T17:42:53.929Z,20.9
2022-08-05T17:44:51.609Z,20.9
2022-08-05T17:48:47.718Z,20.7
2022-08-05T17:54:47.064Z,20.7
2022-08-05T17:56:44.781Z,20.9
2022-08-05T17:59:07.805Z,20.8
2022-08-05T18:01:09.598Z,20.8
2022-08-05T18:03:02.957Z,20.5
2022-08-05T18:05:08.613Z,20.5
2022-08-05T18:07:06.119Z,20.6
2022-08-05T18:09:04.022Z,20.5
2022-08-05T18:11:01.237Z,20.4
2022-08-05T18:14:56.405Z,20.3
2022-08-05T18:22:57.357Z,20.1
2022-08-05T18:24:52.310Z,20.1
2022-08-05T18:26:49.887Z,20.1
2022-08-05T18:30:45.123Z,19.8
2022-08-05T18:32:53.527Z,19.8
2022-08-05T18:34:48.296Z,19.8
2022-08-05T18:36:45.855Z,19.8
2022-08-05T18:38:43.441Z,19.7
2022-08-05T18:41:53.119Z,19.7
2022-08-05T18:42:38.714Z,19.7
2022-08-05T18:44:51.396Z,19.6
2022-08-05T18:46:43.180Z,19.5
2022-08-05T18:52:05.204Z,19.5
2022-08-05T18:53:43.055Z,19.5
2022-08-05T18:55:34.997Z,19.4
2022-08-05T18:57:43.619Z,19.4
2022-08-05T18:59:44.255Z,19.3
2022-08-05T19:01:47.945Z,19.3
2022-08-05T19:06:11.604Z,19.2
2022-08-05T19:09:26.283Z,19.2
2022-08-05T19:11:28.090Z,19.1
2022-08-05T19:13:29.458Z,19
2022-08-05T19:15:59.042Z,19
2022-08-05T19:17:24.604Z,19.1
2022-08-05T19:19:23.770Z,19.1
2022-08-05T19:21:21.358Z,18.9
2022-08-05T19:24:03.861Z,19
2022-08-05T19:25:21.546Z,19.1
2022-08-05T19:27:22.298Z,18.9
2022-08-05T19:29:19.734Z,19
2022-08-05T19:31:17.854Z,18.9
2022-08-05T19:33:16.904Z,19
2022-08-05T19:35:12.609Z,19
2022-08-05T19:41:13.431Z,18.7
2022-08-05T19:43:10.986Z,18.7
2022-08-05T19:46:29.206Z,18.7
2022-08-05T19:48:14.576Z,18.6
2022-08-05T19:50:07.788Z,18.6
2022-08-05T19:52:31.141Z,18.7
2022-08-05T19:54:21.731Z,18.5
2022-08-05T19:56:14.415Z,18.6
2022-08-05T19:58:28.871Z,18.5
2022-08-05T20:00:04.428Z,18.5
2022-08-05T20:02:00.441Z,18.6
2022-08-05T20:03:58.066Z,18.5
2022-08-05T20:08:01.270Z,18.4
2022-08-05T20:13:54.930Z,18.2
2022-08-05T20:15:56.905Z,18.3
2022-08-05T20:17:49.429Z,18.1
2022-08-05T20:19:47.066Z,18.2
2022-08-05T20:21:52.613Z,18.2
2022-08-05T20:23:53.142Z,18.2
2022-08-05T20:25:47.883Z,18.3
2022-08-05T20:27:45.528Z,18.2
2022-08-05T20:29:52.326Z,18.2
2022-08-05T20:33:38.410Z,18
2022-08-05T20:35:45.556Z,17.7
2022-08-05T20:38:06.557Z,17.8
2022-08-05T20:39:39.261Z,17.7
2022-08-05T20:40:43.252Z,17.6
2022-08-05T20:42:39.607Z,17.6
2022-08-05T20:44:38.034Z,17.6
2022-08-05T20:46:34.862Z,17.6
2022-08-05T20:52:35.752Z,17.6
2022-08-05T20:54:55.573Z,17.7
2022-08-05T20:56:41.935Z,17.7
2022-08-05T20:58:29.088Z,17.6
2022-08-05T21:00:49.806Z,17.6
2022-08-05T21:02:37.472Z,17.5
2022-08-05T21:04:29.519Z,17.5
2022-08-05T21:06:28.379Z,17.6
2022-08-05T21:08:26.447Z,17.5
2022-08-05T21:10:22.405Z,17.5
2022-08-05T21:12:20.172Z,17.4
2022-08-05T21:14:17.712Z,17.4
2022-08-05T21:18:20.918Z,17.3
2022-08-05T21:24:15.339Z,17.4
2022-08-05T21:26:14.348Z,17.4
2022-08-05T21:32:26.406Z,17.5
2022-08-05T21:34:10.561Z,17.5
2022-08-05T21:38:37.488Z,17.4
2022-08-05T21:40:32.300Z,17.5
2022-08-05T21:42:44.314Z,17.3
2022-08-05T21:44:35.519Z,17.2
2022-08-05T21:46:34.320Z,17.2
2022-08-05T21:48:31.909Z,17.2
2022-08-05T21:50:28.484Z,17.2
2022-08-05T21:52:27.829Z,17.1
2022-08-05T21:54:27.966Z,17.2
2022-08-05T21:56:29.343Z,17.2
2022-08-05T21:58:31.960Z,17.2
2022-08-05T22:02:22.395Z,17.1
2022-08-05T22:04:19.974Z,17.1
2022-08-05T22:06:23.123Z,17.1
2022-08-05T22:08:22.047Z,17.1
2022-08-05T22:14:31.321Z,17.1
2022-08-05T22:16:39.599Z,17
2022-08-05T22:18:11.466Z,17
2022-08-05T22:20:13.888Z,16.9
2022-08-05T22:22:06.897Z,16.9
2022-08-05T22:24:39.547Z,16.7
2022-08-05T22:26:11.876Z,16.8
2022-08-05T22:28:10.311Z,16.8
2022-08-05T22:29:10.441Z,16.9
2022-08-05T22:31:08.075Z,16.8
2022-08-05T22:33:15.848Z,16.7
2022-08-05T22:35:03.439Z,16.6
2022-08-05T22:37:08.980Z,16.7
2022-08-05T22:39:09.371Z,16.6
2022-08-05T22:43:01.929Z,16.6
2022-08-05T22:44:59.593Z,16.7
2022-08-05T22:46:57.189Z,16.7
2022-08-05T22:48:54.854Z,16.8
2022-08-05T22:51:00.462Z,16.7
2022-08-05T22:54:55.765Z,16.4
2022-08-05T22:56:53.401Z,16.5
2022-08-05T22:58:51.062Z,16.6
2022-08-05T23:00:48.705Z,16.6
2022-08-05T23:02:47.392Z,16.4
2022-08-05T23:04:52.507Z,16.3
2022-08-05T23:08:52.171Z,16.4
2022-08-05T23:12:43.799Z,16.5
2022-08-05T23:14:40.272Z,16.4
2022-08-05T23:16:37.924Z,16.4
2022-08-05T23:18:43.471Z,16.3
2022-08-05T23:20:43.065Z,16.3
2022-08-05T23:22:38.784Z,16.1
2022-08-05T23:23:41.604Z,16.2
2022-08-05T23:27:57.525Z,16.2
2022-08-05T23:29:34.784Z,16.3
2022-08-05T23:34:04.606Z,16.4
2022-08-05T23:35:35.431Z,16.3
2022-08-05T23:44:03.565Z,16.3
2022-08-05T23:45:32.941Z,16.2
2022-08-05T23:49:34.069Z,16.4
2022-08-05T23:53:23.141Z,16.3
2022-08-05T23:55:19.906Z,16.2
2022-08-05T23:57:17.600Z,16.3
2022-08-05T23:59:23.175Z,16.3
